sensor_id;sensor_type;location;lat;lon;timestamp;P1;durP1;ratioP1;P2;durP2;ratioP2
55003;SDS011;40900;52.710;6.438;2023-11-19T00:00:06;109.97;;;52.63;;
55003;SDS011;40900;52.710;6.438;2023-11-19T00:02:37;101.95;;;50.83;;
55003;SDS011;40900;52.710;6.438;2023-11-19T00:05:03;100.72;;;48.00;;
55003;SDS011;40900;52.710;6.438;2023-11-19T00:07:31;102.18;;;48.95;;
55003;SDS011;40900;52.710;6.438;2023-11-19T00:09:57;102.95;;;48.00;;
55003;SDS011;40900;52.710;6.438;2023-11-19T00:12:23;98.65;;;47.70;;
55003;SDS011;40900;52.710;6.438;2023-11-19T00:14:49;107.65;;;49.05;;
55003;SDS011;40900;52.710;6.438;2023-11-19T00:17:15;113.35;;;48.05;;
55003;SDS011;40900;52.710;6.438;2023-11-19T00:19:41;95.25;;;46.40;;
55003;SDS011;40900;52.710;6.438;2023-11-19T00:22:07;91.18;;;44.00;;
55003;SDS011;40900;52.710;6.438;2023-11-19T00:24:33;93.85;;;44.03;;
55003;SDS011;40900;52.710;6.438;2023-11-19T00:26:58;88.10;;;42.55;;
55003;SDS011;40900;52.710;6.438;2023-11-19T00:29:24;87.63;;;41.50;;
55003;SDS011;40900;52.710;6.438;2023-11-19T00:31:50;70.70;;;36.63;;
55003;SDS011;40900;52.710;6.438;2023-11-19T00:34:15;74.60;;;36.83;;
55003;SDS011;40900;52.710;6.438;2023-11-19T00:36:41;68.63;;;34.58;;
55003;SDS011;40900;52.710;6.438;2023-11-19T00:39:07;83.78;;;34.85;;
55003;SDS011;40900;52.710;6.438;2023-11-19T00:41:33;56.33;;;30.00;;
55003;SDS011;40900;52.710;6.438;2023-11-19T00:43:58;65.65;;;29.33;;
55003;SDS011;40900;52.710;6.438;2023-11-19T00:46:24;59.05;;;28.40;;
55003;SDS011;40900;52.710;6.438;2023-11-19T00:48:50;56.50;;;24.42;;
55003;SDS011;40900;52.710;6.438;2023-11-19T00:51:16;59.25;;;25.40;;
55003;SDS011;40900;52.710;6.438;2023-11-19T00:53:41;61.47;;;23.98;;
55003;SDS011;40900;52.710;6.438;2023-11-19T00:56:07;53.85;;;21.95;;
55003;SDS011;40900;52.710;6.438;2023-11-19T00:58:33;52.55;;;20.38;;
55003;SDS011;40900;52.710;6.438;2023-11-19T01:00:59;62.28;;;22.58;;
55003;SDS011;40900;52.710;6.438;2023-11-19T01:03:24;52.78;;;20.10;;
55003;SDS011;40900;52.710;6.438;2023-11-19T01:05:50;54.45;;;18.48;;
55003;SDS011;40900;52.710;6.438;2023-11-19T01:08:17;55.97;;;18.30;;
55003;SDS011;40900;52.710;6.438;2023-11-19T01:10:44;48.63;;;19.08;;
55003;SDS011;40900;52.710;6.438;2023-11-19T01:13:09;58.40;;;18.20;;
55003;SDS011;40900;52.710;6.438;2023-11-19T01:15:35;44.72;;;17.42;;
55003;SDS011;40900;52.710;6.438;2023-11-19T01:18:01;46.20;;;16.65;;
55003;SDS011;40900;52.710;6.438;2023-11-19T01:20:30;45.63;;;16.63;;
55003;SDS011;40900;52.710;6.438;2023-11-19T01:22:55;48.10;;;16.92;;
55003;SDS011;40900;52.710;6.438;2023-11-19T01:25:21;40.15;;;15.65;;
55003;SDS011;40900;52.710;6.438;2023-11-19T01:27:47;39.08;;;14.15;;
55003;SDS011;40900;52.710;6.438;2023-11-19T01:30:13;42.50;;;15.18;;
55003;SDS011;40900;52.710;6.438;2023-11-19T01:32:39;47.78;;;15.05;;
55003;SDS011;40900;52.710;6.438;2023-11-19T01:35:05;42.67;;;13.85;;
55003;SDS011;40900;52.710;6.438;2023-11-19T01:37:33;41.08;;;13.07;;
55003;SDS011;40900;52.710;6.438;2023-11-19T01:39:59;48.42;;;12.82;;
55003;SDS011;40900;52.710;6.438;2023-11-19T01:42:25;49.10;;;12.90;;
55003;SDS011;40900;52.710;6.438;2023-11-19T01:44:58;45.95;;;10.90;;
55003;SDS011;40900;52.710;6.438;2023-11-19T01:47:25;38.17;;;13.13;;
55003;SDS011;40900;52.710;6.438;2023-11-19T01:49:52;44.40;;;10.75;;
55003;SDS011;40900;52.710;6.438;2023-11-19T01:52:18;31.08;;;9.30;;
55003;SDS011;40900;52.710;6.438;2023-11-19T01:54:45;39.25;;;9.48;;
55003;SDS011;40900;52.710;6.438;2023-11-19T01:57:12;46.22;;;8.68;;
55003;SDS011;40900;52.710;6.438;2023-11-19T01:59:38;44.70;;;9.95;;
55003;SDS011;40900;52.710;6.438;2023-11-19T02:02:05;38.30;;;8.23;;
55003;SDS011;40900;52.710;6.438;2023-11-19T02:04:31;41.58;;;8.55;;
55003;SDS011;40900;52.710;6.438;2023-11-19T02:06:58;46.92;;;8.93;;
55003;SDS011;40900;52.710;6.438;2023-11-19T02:09:24;48.30;;;8.77;;
55003;SDS011;40900;52.710;6.438;2023-11-19T02:11:50;39.20;;;7.93;;
55003;SDS011;40900;52.710;6.438;2023-11-19T02:14:20;50.50;;;8.88;;
55003;SDS011;40900;52.710;6.438;2023-11-19T02:16:49;34.08;;;7.70;;
55003;SDS011;40900;52.710;6.438;2023-11-19T02:19:15;43.00;;;7.57;;
55003;SDS011;40900;52.710;6.438;2023-11-19T02:21:40;37.97;;;6.57;;
55003;SDS011;40900;52.710;6.438;2023-11-19T02:24:07;41.78;;;8.20;;
55003;SDS011;40900;52.710;6.438;2023-11-19T02:29:11;38.88;;;6.97;;
55003;SDS011;40900;52.710;6.438;2023-11-19T02:31:38;41.55;;;6.72;;
55003;SDS011;40900;52.710;6.438;2023-11-19T02:34:04;42.50;;;7.70;;
55003;SDS011;40900;52.710;6.438;2023-11-19T02:36:30;36.13;;;7.30;;
55003;SDS011;40900;52.710;6.438;2023-11-19T02:38:57;33.00;;;7.88;;
55003;SDS011;40900;52.710;6.438;2023-11-19T02:41:23;33.90;;;6.15;;
55003;SDS011;40900;52.710;6.438;2023-11-19T02:43:49;44.13;;;8.35;;
55003;SDS011;40900;52.710;6.438;2023-11-19T02:46:15;44.03;;;8.77;;
55003;SDS011;40900;52.710;6.438;2023-11-19T02:48:42;38.03;;;7.40;;
55003;SDS011;40900;52.710;6.438;2023-11-19T02:51:09;35.28;;;5.93;;
55003;SDS011;40900;52.710;6.438;2023-11-19T02:53:35;38.67;;;7.95;;
55003;SDS011;40900;52.710;6.438;2023-11-19T02:56:05;40.45;;;6.63;;
55003;SDS011;40900;52.710;6.438;2023-11-19T02:58:37;39.30;;;7.05;;
55003;SDS011;40900;52.710;6.438;2023-11-19T03:01:04;42.78;;;7.43;;
55003;SDS011;40900;52.710;6.438;2023-11-19T03:03:38;40.40;;;6.68;;
55003;SDS011;40900;52.710;6.438;2023-11-19T03:06:05;43.33;;;6.75;;
55003;SDS011;40900;52.710;6.438;2023-11-19T03:08:35;46.63;;;7.60;;
55003;SDS011;40900;52.710;6.438;2023-11-19T03:11:01;55.03;;;8.70;;
55003;SDS011;40900;52.710;6.438;2023-11-19T03:13:27;43.53;;;7.65;;
55003;SDS011;40900;52.710;6.438;2023-11-19T03:15:53;49.13;;;7.93;;
55003;SDS011;40900;52.710;6.438;2023-11-19T03:18:21;45.30;;;7.35;;
55003;SDS011;40900;52.710;6.438;2023-11-19T03:20:47;39.35;;;6.15;;
55003;SDS011;40900;52.710;6.438;2023-11-19T03:23:13;47.42;;;8.18;;
55003;SDS011;40900;52.710;6.438;2023-11-19T03:25:39;47.88;;;7.57;;
55003;SDS011;40900;52.710;6.438;2023-11-19T03:28:04;49.53;;;8.40;;
55003;SDS011;40900;52.710;6.438;2023-11-19T03:30:31;47.30;;;7.90;;
55003;SDS011;40900;52.710;6.438;2023-11-19T03:32:57;43.83;;;8.13;;
55003;SDS011;40900;52.710;6.438;2023-11-19T03:35:25;54.75;;;9.88;;
55003;SDS011;40900;52.710;6.438;2023-11-19T03:37:50;54.38;;;9.88;;
55003;SDS011;40900;52.710;6.438;2023-11-19T03:40:17;50.95;;;8.85;;
55003;SDS011;40900;52.710;6.438;2023-11-19T03:42:44;42.58;;;7.72;;
55003;SDS011;40900;52.710;6.438;2023-11-19T03:45:10;49.90;;;8.13;;
55003;SDS011;40900;52.710;6.438;2023-11-19T03:47:37;42.85;;;7.45;;
55003;SDS011;40900;52.710;6.438;2023-11-19T03:50:03;42.17;;;7.85;;
55003;SDS011;40900;52.710;6.438;2023-11-19T03:52:30;52.58;;;8.73;;
55003;SDS011;40900;52.710;6.438;2023-11-19T03:54:56;49.97;;;9.55;;
55003;SDS011;40900;52.710;6.438;2023-11-19T03:57:22;45.83;;;8.50;;
55003;SDS011;40900;52.710;6.438;2023-11-19T03:59:48;43.30;;;8.35;;
55003;SDS011;40900;52.710;6.438;2023-11-19T04:02:14;43.75;;;7.90;;
55003;SDS011;40900;52.710;6.438;2023-11-19T04:04:41;52.65;;;9.40;;
55003;SDS011;40900;52.710;6.438;2023-11-19T04:07:07;46.47;;;8.95;;
55003;SDS011;40900;52.710;6.438;2023-11-19T04:09:33;53.63;;;8.90;;
55003;SDS011;40900;52.710;6.438;2023-11-19T04:11:59;49.17;;;8.55;;
55003;SDS011;40900;52.710;6.438;2023-11-19T04:14:25;36.45;;;7.20;;
55003;SDS011;40900;52.710;6.438;2023-11-19T04:16:52;49.88;;;7.72;;
55003;SDS011;40900;52.710;6.438;2023-11-19T04:19:18;48.42;;;9.30;;
55003;SDS011;40900;52.710;6.438;2023-11-19T04:21:44;59.58;;;8.52;;
55003;SDS011;40900;52.710;6.438;2023-11-19T04:24:11;53.22;;;8.05;;
55003;SDS011;40900;52.710;6.438;2023-11-19T04:26:42;53.70;;;8.30;;
55003;SDS011;40900;52.710;6.438;2023-11-19T04:29:14;59.30;;;9.20;;
55003;SDS011;40900;52.710;6.438;2023-11-19T04:31:44;50.72;;;9.90;;
55003;SDS011;40900;52.710;6.438;2023-11-19T04:34:11;54.70;;;8.15;;
55003;SDS011;40900;52.710;6.438;2023-11-19T04:36:37;53.72;;;8.68;;
55003;SDS011;40900;52.710;6.438;2023-11-19T04:39:03;53.38;;;8.68;;
55003;SDS011;40900;52.710;6.438;2023-11-19T04:41:46;53.08;;;9.20;;
55003;SDS011;40900;52.710;6.438;2023-11-19T04:44:14;52.35;;;8.98;;
55003;SDS011;40900;52.710;6.438;2023-11-19T04:46:41;59.10;;;10.43;;
55003;SDS011;40900;52.710;6.438;2023-11-19T04:49:09;59.00;;;9.18;;
55003;SDS011;40900;52.710;6.438;2023-11-19T04:51:42;51.78;;;9.35;;
55003;SDS011;40900;52.710;6.438;2023-11-19T04:54:12;56.13;;;9.18;;
55003;SDS011;40900;52.710;6.438;2023-11-19T04:56:38;58.55;;;10.63;;
55003;SDS011;40900;52.710;6.438;2023-11-19T04:59:05;62.22;;;9.77;;
55003;SDS011;40900;52.710;6.438;2023-11-19T05:01:34;47.72;;;8.73;;
55003;SDS011;40900;52.710;6.438;2023-11-19T05:04:00;48.53;;;8.93;;
55003;SDS011;40900;52.710;6.438;2023-11-19T05:06:27;58.05;;;8.63;;
55003;SDS011;40900;52.710;6.438;2023-11-19T05:08:54;54.75;;;9.25;;
55003;SDS011;40900;52.710;6.438;2023-11-19T05:11:21;54.90;;;10.73;;
55003;SDS011;40900;52.710;6.438;2023-11-19T05:13:47;54.15;;;9.27;;
55003;SDS011;40900;52.710;6.438;2023-11-19T05:16:12;60.95;;;9.77;;
55003;SDS011;40900;52.710;6.438;2023-11-19T05:18:41;54.35;;;8.60;;
55003;SDS011;40900;52.710;6.438;2023-11-19T05:21:07;63.35;;;9.18;;
55003;SDS011;40900;52.710;6.438;2023-11-19T05:23:33;63.00;;;10.38;;
55003;SDS011;40900;52.710;6.438;2023-11-19T05:25:59;52.67;;;8.10;;
55003;SDS011;40900;52.710;6.438;2023-11-19T05:28:28;53.33;;;8.95;;
55003;SDS011;40900;52.710;6.438;2023-11-19T05:30:54;60.35;;;10.02;;
55003;SDS011;40900;52.710;6.438;2023-11-19T05:33:20;64.32;;;9.75;;
55003;SDS011;40900;52.710;6.438;2023-11-19T05:35:46;46.88;;;8.48;;
55003;SDS011;40900;52.710;6.438;2023-11-19T05:38:12;57.13;;;8.38;;
55003;SDS011;40900;52.710;6.438;2023-11-19T05:40:38;55.17;;;8.90;;
55003;SDS011;40900;52.710;6.438;2023-11-19T05:43:04;54.50;;;9.27;;
55003;SDS011;40900;52.710;6.438;2023-11-19T05:45:31;57.17;;;9.43;;
55003;SDS011;40900;52.710;6.438;2023-11-19T05:47:57;48.63;;;8.68;;
55003;SDS011;40900;52.710;6.438;2023-11-19T05:50:23;45.80;;;7.93;;
55003;SDS011;40900;52.710;6.438;2023-11-19T05:52:49;60.95;;;10.25;;
55003;SDS011;40900;52.710;6.438;2023-11-19T05:55:15;53.88;;;9.43;;
55003;SDS011;40900;52.710;6.438;2023-11-19T05:57:41;55.13;;;8.30;;
55003;SDS011;40900;52.710;6.438;2023-11-19T06:00:07;53.75;;;9.10;;
55003;SDS011;40900;52.710;6.438;2023-11-19T06:02:35;59.08;;;9.48;;
55003;SDS011;40900;52.710;6.438;2023-11-19T06:05:02;55.78;;;8.82;;
55003;SDS011;40900;52.710;6.438;2023-11-19T06:07:30;52.08;;;9.35;;
55003;SDS011;40900;52.710;6.438;2023-11-19T06:09:56;56.20;;;8.88;;
55003;SDS011;40900;52.710;6.438;2023-11-19T06:12:22;56.88;;;9.40;;
55003;SDS011;40900;52.710;6.438;2023-11-19T06:14:48;51.58;;;8.63;;
55003;SDS011;40900;52.710;6.438;2023-11-19T06:17:14;70.55;;;10.10;;
55003;SDS011;40900;52.710;6.438;2023-11-19T06:19:39;62.65;;;10.20;;
55003;SDS011;40900;52.710;6.438;2023-11-19T06:22:05;61.75;;;9.45;;
55003;SDS011;40900;52.710;6.438;2023-11-19T06:24:31;53.58;;;8.50;;
55003;SDS011;40900;52.710;6.438;2023-11-19T06:26:57;71.55;;;9.88;;
55003;SDS011;40900;52.710;6.438;2023-11-19T06:29:23;62.47;;;10.85;;
55003;SDS011;40900;52.710;6.438;2023-11-19T06:31:50;62.55;;;8.55;;
55003;SDS011;40900;52.710;6.438;2023-11-19T06:34:16;51.65;;;8.90;;
55003;SDS011;40900;52.710;6.438;2023-11-19T06:36:42;58.70;;;9.50;;
55003;SDS011;40900;52.710;6.438;2023-11-19T06:39:09;50.92;;;9.05;;
55003;SDS011;40900;52.710;6.438;2023-11-19T06:41:36;57.13;;;11.38;;
55003;SDS011;40900;52.710;6.438;2023-11-19T06:44:03;54.22;;;9.70;;
55003;SDS011;40900;52.710;6.438;2023-11-19T06:46:30;52.95;;;8.90;;
55003;SDS011;40900;52.710;6.438;2023-11-19T06:48:56;59.67;;;8.95;;
55003;SDS011;40900;52.710;6.438;2023-11-19T06:51:22;55.80;;;9.35;;
55003;SDS011;40900;52.710;6.438;2023-11-19T06:53:49;55.25;;;10.23;;
55003;SDS011;40900;52.710;6.438;2023-11-19T06:56:22;60.80;;;8.82;;
55003;SDS011;40900;52.710;6.438;2023-11-19T06:58:49;54.15;;;9.48;;
55003;SDS011;40900;52.710;6.438;2023-11-19T07:01:18;76.03;;;11.27;;
55003;SDS011;40900;52.710;6.438;2023-11-19T07:03:47;62.70;;;9.55;;
55003;SDS011;40900;52.710;6.438;2023-11-19T07:06:14;56.92;;;9.02;;
55003;SDS011;40900;52.710;6.438;2023-11-19T07:08:42;60.42;;;9.60;;
55003;SDS011;40900;52.710;6.438;2023-11-19T07:11:10;50.40;;;8.18;;
55003;SDS011;40900;52.710;6.438;2023-11-19T07:13:37;61.67;;;10.50;;
55003;SDS011;40900;52.710;6.438;2023-11-19T07:16:03;60.67;;;9.93;;
55003;SDS011;40900;52.710;6.438;2023-11-19T07:18:29;53.72;;;8.82;;
55003;SDS011;40900;52.710;6.438;2023-11-19T07:20:55;55.05;;;8.25;;
55003;SDS011;40900;52.710;6.438;2023-11-19T07:23:20;66.03;;;8.80;;
55003;SDS011;40900;52.710;6.438;2023-11-19T07:25:46;63.08;;;8.90;;
55003;SDS011;40900;52.710;6.438;2023-11-19T07:28:13;52.50;;;8.80;;
55003;SDS011;40900;52.710;6.438;2023-11-19T07:30:39;53.85;;;8.48;;
55003;SDS011;40900;52.710;6.438;2023-11-19T07:33:06;53.20;;;8.98;;
55003;SDS011;40900;52.710;6.438;2023-11-19T07:35:33;55.00;;;8.68;;
55003;SDS011;40900;52.710;6.438;2023-11-19T07:37:59;52.33;;;7.90;;
55003;SDS011;40900;52.710;6.438;2023-11-19T07:40:25;60.78;;;9.73;;
55003;SDS011;40900;52.710;6.438;2023-11-19T07:42:50;51.25;;;9.07;;
55003;SDS011;40900;52.710;6.438;2023-11-19T07:45:17;55.13;;;8.38;;
55003;SDS011;40900;52.710;6.438;2023-11-19T07:47:43;45.40;;;8.32;;
55003;SDS011;40900;52.710;6.438;2023-11-19T07:50:11;54.72;;;9.52;;
55003;SDS011;40900;52.710;6.438;2023-11-19T07:52:39;50.10;;;8.35;;
55003;SDS011;40900;52.710;6.438;2023-11-19T07:55:05;57.78;;;9.15;;
55003;SDS011;40900;52.710;6.438;2023-11-19T07:57:31;61.60;;;9.40;;
55003;SDS011;40900;52.710;6.438;2023-11-19T07:59:57;52.40;;;9.07;;
55003;SDS011;40900;52.710;6.438;2023-11-19T08:02:23;54.65;;;9.43;;
55003;SDS011;40900;52.710;6.438;2023-11-19T08:04:49;57.10;;;9.93;;
55003;SDS011;40900;52.710;6.438;2023-11-19T08:07:17;44.33;;;7.95;;
55003;SDS011;40900;52.710;6.438;2023-11-19T08:09:44;54.95;;;8.52;;
55003;SDS011;40900;52.710;6.438;2023-11-19T08:12:10;58.50;;;11.15;;
55003;SDS011;40900;52.710;6.438;2023-11-19T08:14:36;56.58;;;8.65;;
55003;SDS011;40900;52.710;6.438;2023-11-19T08:17:02;57.78;;;8.85;;
55003;SDS011;40900;52.710;6.438;2023-11-19T08:19:28;54.55;;;9.23;;
55003;SDS011;40900;52.710;6.438;2023-11-19T08:21:54;54.67;;;8.88;;
55003;SDS011;40900;52.710;6.438;2023-11-19T08:24:19;59.67;;;9.52;;
55003;SDS011;40900;52.710;6.438;2023-11-19T08:26:45;58.55;;;9.45;;
55003;SDS011;40900;52.710;6.438;2023-11-19T08:29:11;54.15;;;10.40;;
55003;SDS011;40900;52.710;6.438;2023-11-19T08:31:37;54.25;;;9.35;;
55003;SDS011;40900;52.710;6.438;2023-11-19T08:34:03;61.22;;;9.63;;
55003;SDS011;40900;52.710;6.438;2023-11-19T08:36:28;56.35;;;9.15;;
55003;SDS011;40900;52.710;6.438;2023-11-19T08:38:54;53.55;;;10.07;;
55003;SDS011;40900;52.710;6.438;2023-11-19T08:41:20;64.00;;;10.15;;
55003;SDS011;40900;52.710;6.438;2023-11-19T08:43:46;61.78;;;8.95;;
55003;SDS011;40900;52.710;6.438;2023-11-19T08:46:12;56.80;;;10.07;;
55003;SDS011;40900;52.710;6.438;2023-11-19T08:48:38;55.83;;;9.95;;
55003;SDS011;40900;52.710;6.438;2023-11-19T08:51:06;64.10;;;9.25;;
55003;SDS011;40900;52.710;6.438;2023-11-19T08:53:32;54.15;;;8.85;;
55003;SDS011;40900;52.710;6.438;2023-11-19T08:55:58;51.05;;;9.63;;
55003;SDS011;40900;52.710;6.438;2023-11-19T08:58:24;54.42;;;9.15;;
55003;SDS011;40900;52.710;6.438;2023-11-19T09:00:49;53.25;;;9.63;;
55003;SDS011;40900;52.710;6.438;2023-11-19T09:03:15;62.72;;;9.32;;
55003;SDS011;40900;52.710;6.438;2023-11-19T09:05:41;57.00;;;8.50;;
55003;SDS011;40900;52.710;6.438;2023-11-19T09:08:07;60.83;;;9.18;;
55003;SDS011;40900;52.710;6.438;2023-11-19T09:10:33;48.95;;;9.27;;
55003;SDS011;40900;52.710;6.438;2023-11-19T09:12:59;62.83;;;9.95;;
55003;SDS011;40900;52.710;6.438;2023-11-19T09:15:24;59.97;;;9.07;;
55003;SDS011;40900;52.710;6.438;2023-11-19T09:17:50;45.08;;;7.90;;
55003;SDS011;40900;52.710;6.438;2023-11-19T09:20:16;54.42;;;9.40;;
55003;SDS011;40900;52.710;6.438;2023-11-19T09:22:42;65.10;;;10.25;;
55003;SDS011;40900;52.710;6.438;2023-11-19T09:25:08;51.75;;;9.13;;
55003;SDS011;40900;52.710;6.438;2023-11-19T09:27:34;48.50;;;8.73;;
55003;SDS011;40900;52.710;6.438;2023-11-19T09:30:00;50.97;;;8.63;;
55003;SDS011;40900;52.710;6.438;2023-11-19T09:32:26;57.20;;;9.20;;
55003;SDS011;40900;52.710;6.438;2023-11-19T09:34:51;52.60;;;9.60;;
55003;SDS011;40900;52.710;6.438;2023-11-19T09:37:17;47.65;;;9.52;;
55003;SDS011;40900;52.710;6.438;2023-11-19T09:39:43;46.47;;;8.27;;
55003;SDS011;40900;52.710;6.438;2023-11-19T09:42:09;50.30;;;8.15;;
55003;SDS011;40900;52.710;6.438;2023-11-19T09:44:37;62.75;;;10.57;;
55003;SDS011;40900;52.710;6.438;2023-11-19T09:47:04;53.25;;;8.13;;
55003;SDS011;40900;52.710;6.438;2023-11-19T09:49:32;49.63;;;9.32;;
55003;SDS011;40900;52.710;6.438;2023-11-19T09:51:58;48.60;;;8.45;;
55003;SDS011;40900;52.710;6.438;2023-11-19T09:54:24;46.15;;;7.72;;
55003;SDS011;40900;52.710;6.438;2023-11-19T09:56:50;48.75;;;9.38;;
55003;SDS011;40900;52.710;6.438;2023-11-19T09:59:16;56.05;;;8.45;;
55003;SDS011;40900;52.710;6.438;2023-11-19T10:01:43;49.47;;;8.82;;
55003;SDS011;40900;52.710;6.438;2023-11-19T10:04:10;58.58;;;9.27;;
55003;SDS011;40900;52.710;6.438;2023-11-19T10:06:40;49.83;;;8.48;;
55003;SDS011;40900;52.710;6.438;2023-11-19T10:09:07;48.53;;;8.02;;
55003;SDS011;40900;52.710;6.438;2023-11-19T10:11:32;58.90;;;8.90;;
55003;SDS011;40900;52.710;6.438;2023-11-19T10:13:59;59.45;;;9.95;;
55003;SDS011;40900;52.710;6.438;2023-11-19T10:16:29;56.08;;;8.90;;
55003;SDS011;40900;52.710;6.438;2023-11-19T10:18:57;51.70;;;9.75;;
55003;SDS011;40900;52.710;6.438;2023-11-19T10:21:24;51.35;;;9.07;;
55003;SDS011;40900;52.710;6.438;2023-11-19T10:23:53;47.10;;;8.60;;
55003;SDS011;40900;52.710;6.438;2023-11-19T10:26:22;60.45;;;9.75;;
55003;SDS011;40900;52.710;6.438;2023-11-19T10:28:48;53.08;;;9.35;;
55003;SDS011;40900;52.710;6.438;2023-11-19T10:31:15;51.33;;;8.20;;
55003;SDS011;40900;52.710;6.438;2023-11-19T10:33:43;50.08;;;8.88;;
55003;SDS011;40900;52.710;6.438;2023-11-19T10:36:10;56.72;;;8.30;;
55003;SDS011;40900;52.710;6.438;2023-11-19T10:38:37;50.30;;;8.65;;
55003;SDS011;40900;52.710;6.438;2023-11-19T10:41:04;51.60;;;8.80;;
55003;SDS011;40900;52.710;6.438;2023-11-19T10:43:30;53.88;;;8.52;;
55003;SDS011;40900;52.710;6.438;2023-11-19T10:46:09;62.78;;;9.68;;
55003;SDS011;40900;52.710;6.438;2023-11-19T10:48:36;59.03;;;9.55;;
55003;SDS011;40900;52.710;6.438;2023-11-19T10:51:02;60.72;;;9.40;;
55003;SDS011;40900;52.710;6.438;2023-11-19T10:53:32;50.47;;;8.80;;
55003;SDS011;40900;52.710;6.438;2023-11-19T10:56:01;50.65;;;9.15;;
55003;SDS011;40900;52.710;6.438;2023-11-19T10:58:31;53.03;;;9.38;;
55003;SDS011;40900;52.710;6.438;2023-11-19T11:00:59;51.58;;;9.40;;
55003;SDS011;40900;52.710;6.438;2023-11-19T11:03:29;49.90;;;9.13;;
55003;SDS011;40900;52.710;6.438;2023-11-19T11:06:04;53.13;;;9.32;;
55003;SDS011;40900;52.710;6.438;2023-11-19T11:08:30;54.55;;;10.80;;
55003;SDS011;40900;52.710;6.438;2023-11-19T11:10:57;53.10;;;9.82;;
55003;SDS011;40900;52.710;6.438;2023-11-19T11:13:24;52.10;;;9.32;;
55003;SDS011;40900;52.710;6.438;2023-11-19T11:15:52;52.75;;;9.35;;
55003;SDS011;40900;52.710;6.438;2023-11-19T11:18:21;44.80;;;8.32;;
55003;SDS011;40900;52.710;6.438;2023-11-19T11:20:49;54.67;;;9.07;;
55003;SDS011;40900;52.710;6.438;2023-11-19T11:23:39;59.35;;;11.07;;
55003;SDS011;40900;52.710;6.438;2023-11-19T11:36:44;63.53;;;9.52;;
55003;SDS011;40900;52.710;6.438;2023-11-19T11:39:20;60.30;;;10.65;;
55003;SDS011;40900;52.710;6.438;2023-11-19T11:42:04;45.22;;;7.28;;
55003;SDS011;40900;52.710;6.438;2023-11-19T11:44:58;53.72;;;8.90;;
55003;SDS011;40900;52.710;6.438;2023-11-19T11:50:11;59.22;;;10.80;;
55003;SDS011;40900;52.710;6.438;2023-11-19T11:55:29;47.40;;;7.75;;
55003;SDS011;40900;52.710;6.438;2023-11-19T11:58:01;52.33;;;8.70;;
55003;SDS011;40900;52.710;6.438;2023-11-19T12:00:31;61.85;;;8.98;;
55003;SDS011;40900;52.710;6.438;2023-11-19T12:03:00;52.50;;;9.13;;
55003;SDS011;40900;52.710;6.438;2023-11-19T12:05:27;61.13;;;8.98;;
55003;SDS011;40900;52.710;6.438;2023-11-19T12:08:00;55.42;;;8.88;;
55003;SDS011;40900;52.710;6.438;2023-11-19T12:10:30;60.97;;;8.85;;
55003;SDS011;40900;52.710;6.438;2023-11-19T12:13:00;51.95;;;8.60;;
55003;SDS011;40900;52.710;6.438;2023-11-19T12:15:27;73.80;;;10.15;;
55003;SDS011;40900;52.710;6.438;2023-11-19T12:17:55;58.53;;;8.52;;
55003;SDS011;40900;52.710;6.438;2023-11-19T12:20:22;55.00;;;8.50;;
55003;SDS011;40900;52.710;6.438;2023-11-19T12:22:52;59.60;;;9.85;;
55003;SDS011;40900;52.710;6.438;2023-11-19T12:25:19;47.72;;;8.68;;
55003;SDS011;40900;52.710;6.438;2023-11-19T12:27:46;46.05;;;8.73;;
55003;SDS011;40900;52.710;6.438;2023-11-19T12:30:22;40.20;;;8.07;;
55003;SDS011;40900;52.710;6.438;2023-11-19T12:32:51;49.13;;;8.35;;
55003;SDS011;40900;52.710;6.438;2023-11-19T12:35:19;48.67;;;8.35;;
55003;SDS011;40900;52.710;6.438;2023-11-19T12:37:48;47.75;;;8.23;;
55003;SDS011;40900;52.710;6.438;2023-11-19T12:42:44;47.90;;;7.53;;
55003;SDS011;40900;52.710;6.438;2023-11-19T12:45:10;47.05;;;7.55;;
55003;SDS011;40900;52.710;6.438;2023-11-19T12:47:37;47.60;;;7.72;;
55003;SDS011;40900;52.710;6.438;2023-11-19T12:50:05;44.97;;;7.95;;
55003;SDS011;40900;52.710;6.438;2023-11-19T12:52:32;45.97;;;7.78;;
55003;SDS011;40900;52.710;6.438;2023-11-19T12:54:57;48.70;;;6.82;;
55003;SDS011;40900;52.710;6.438;2023-11-19T12:57:39;39.63;;;7.10;;
55003;SDS011;40900;52.710;6.438;2023-11-19T13:00:06;42.92;;;7.63;;
55003;SDS011;40900;52.710;6.438;2023-11-19T13:02:48;46.13;;;8.45;;
55003;SDS011;40900;52.710;6.438;2023-11-19T13:07:58;47.25;;;6.93;;
55003;SDS011;40900;52.710;6.438;2023-11-19T13:10:25;51.15;;;8.48;;
55003;SDS011;40900;52.710;6.438;2023-11-19T13:13:05;44.42;;;7.30;;
55003;SDS011;40900;52.710;6.438;2023-11-19T13:15:33;47.40;;;7.90;;
55003;SDS011;40900;52.710;6.438;2023-11-19T13:18:00;37.03;;;6.75;;
55003;SDS011;40900;52.710;6.438;2023-11-19T13:20:26;49.90;;;7.65;;
55003;SDS011;40900;52.710;6.438;2023-11-19T13:25:24;52.75;;;8.25;;
55003;SDS011;40900;52.710;6.438;2023-11-19T13:27:51;46.78;;;7.85;;
55003;SDS011;40900;52.710;6.438;2023-11-19T13:30:17;35.47;;;5.75;;
55003;SDS011;40900;52.710;6.438;2023-11-19T13:32:43;43.63;;;8.18;;
55003;SDS011;40900;52.710;6.438;2023-11-19T13:35:11;43.95;;;6.85;;
55003;SDS011;40900;52.710;6.438;2023-11-19T13:37:37;48.22;;;8.05;;
55003;SDS011;40900;52.710;6.438;2023-11-19T13:40:04;35.95;;;6.15;;
55003;SDS011;40900;52.710;6.438;2023-11-19T13:42:31;36.58;;;6.75;;
55003;SDS011;40900;52.710;6.438;2023-11-19T13:44:57;46.05;;;7.63;;
55003;SDS011;40900;52.710;6.438;2023-11-19T13:47:22;53.58;;;8.40;;
55003;SDS011;40900;52.710;6.438;2023-11-19T13:49:49;49.42;;;6.75;;
55003;SDS011;40900;52.710;6.438;2023-11-19T13:52:15;53.28;;;6.60;;
55003;SDS011;40900;52.710;6.438;2023-11-19T13:54:41;46.05;;;6.30;;
55003;SDS011;40900;52.710;6.438;2023-11-19T13:57:07;50.53;;;6.47;;
55003;SDS011;40900;52.710;6.438;2023-11-19T13:59:32;44.45;;;9.32;;
55003;SDS011;40900;52.710;6.438;2023-11-19T14:01:58;39.28;;;6.63;;
55003;SDS011;40900;52.710;6.438;2023-11-19T14:04:24;50.55;;;7.97;;
55003;SDS011;40900;52.710;6.438;2023-11-19T14:06:50;52.63;;;7.05;;
55003;SDS011;40900;52.710;6.438;2023-11-19T14:09:16;43.08;;;7.22;;
55003;SDS011;40900;52.710;6.438;2023-11-19T14:11:43;45.97;;;6.88;;
55003;SDS011;40900;52.710;6.438;2023-11-19T14:14:09;46.97;;;6.90;;
55003;SDS011;40900;52.710;6.438;2023-11-19T14:16:34;40.25;;;7.50;;
55003;SDS011;40900;52.710;6.438;2023-11-19T14:19:00;38.97;;;6.65;;
55003;SDS011;40900;52.710;6.438;2023-11-19T14:21:26;43.17;;;6.65;;
55003;SDS011;40900;52.710;6.438;2023-11-19T14:23:52;40.47;;;6.07;;
55003;SDS011;40900;52.710;6.438;2023-11-19T14:26:18;42.05;;;6.38;;
55003;SDS011;40900;52.710;6.438;2023-11-19T14:28:44;46.90;;;8.27;;
55003;SDS011;40900;52.710;6.438;2023-11-19T14:31:10;38.70;;;6.10;;
55003;SDS011;40900;52.710;6.438;2023-11-19T14:33:35;44.80;;;7.00;;
55003;SDS011;40900;52.710;6.438;2023-11-19T14:36:03;39.80;;;6.72;;
55003;SDS011;40900;52.710;6.438;2023-11-19T14:38:29;43.72;;;6.57;;
55003;SDS011;40900;52.710;6.438;2023-11-19T14:40:55;35.65;;;5.63;;
55003;SDS011;40900;52.710;6.438;2023-11-19T14:43:21;32.70;;;5.82;;
55003;SDS011;40900;52.710;6.438;2023-11-19T14:45:46;38.00;;;6.90;;
55003;SDS011;40900;52.710;6.438;2023-11-19T14:48:12;42.15;;;7.25;;
55003;SDS011;40900;52.710;6.438;2023-11-19T14:50:39;36.85;;;6.50;;
55003;SDS011;40900;52.710;6.438;2023-11-19T14:53:04;47.45;;;6.72;;
55003;SDS011;40900;52.710;6.438;2023-11-19T14:55:31;36.90;;;6.07;;